createdAt,value
2023-05-12T00:02:38.450Z,77.49
2023-05-12T00:05:29.573Z,77.48
2023-05-12T00:08:19.100Z,76.71
2023-05-12T00:11:09.770Z,77.30
2023-05-12T00:13:59.255Z,76.92
2023-05-12T00:16:51.816Z,77.25
2023-05-12T00:19:43.977Z,77.75
2023-05-12T00:22:33.220Z,77.81
2023-05-12T00:25:22.578Z,77.90
2023-05-12T00:28:13.135Z,78.24
2023-05-12T00:31:04.848Z,78.18
2023-05-12T00:33:54.171Z,78.36
2023-05-12T00:36:43.394Z,78.29
2023-05-12T00:39:32.753Z,78.52
2023-05-12T00:42:22.214Z,78.63
2023-05-12T00:45:13.931Z,78.72
2023-05-12T00:48:03.583Z,78.33
2023-05-12T00:50:53.057Z,78.57
2023-05-12T00:53:49.677Z,78.31
2023-05-12T00:56:40.432Z,77.79
2023-05-12T00:59:30.882Z,77.98
2023-05-12T01:02:22.180Z,78.01
2023-05-12T01:05:13.473Z,78.03
2023-05-12T01:08:04.564Z,77.31
2023-05-12T01:10:54.280Z,77.69
2023-05-12T01:13:43.670Z,77.83
2023-05-12T01:16:40.750Z,78.30
2023-05-12T01:19:42.769Z,79.19
2023-05-12T01:22:34.147Z,78.37
2023-05-12T01:25:25.733Z,78.36
2023-05-12T01:28:18.106Z,78.67
2023-05-12T01:31:09.607Z,78.64
2023-05-12T01:34:00.955Z,79.17
2023-05-12T01:36:51.034Z,78.84
2023-05-12T01:39:40.387Z,78.90
2023-05-12T01:42:31.879Z,78.88
2023-05-12T01:45:22.997Z,78.30
2023-05-12T01:48:14.543Z,78.60
2023-05-12T01:51:08.551Z,78.73
2023-05-12T01:53:57.838Z,78.66
2023-05-12T01:56:49.596Z,78.78
2023-05-12T01:59:38.899Z,79.24
2023-05-12T02:02:31.809Z,79.09
2023-05-12T02:05:22.295Z,79.92
2023-05-12T02:08:12.576Z,79.56
2023-05-12T02:11:08.535Z,79.67
2023-05-12T02:13:58.691Z,79.80
2023-05-12T02:16:52.710Z,79.91
2023-05-12T02:19:44.893Z,79.65
2023-05-12T02:22:36.049Z,80.26
2023-05-12T02:25:25.443Z,79.48
2023-05-12T02:28:14.816Z,79.87
2023-05-12T02:31:04.280Z,80.22
2023-05-12T02:33:54.606Z,80.07
2023-05-12T02:36:46.433Z,80.33
2023-05-12T02:39:35.720Z,80.21
2023-05-12T02:42:24.995Z,80.30
2023-05-12T02:45:14.764Z,81.07
2023-05-12T02:48:04.257Z,81.30
2023-05-12T02:50:53.432Z,81.60
2023-05-12T02:53:44.232Z,81.33
2023-05-12T02:56:34.116Z,81.37
2023-05-12T02:59:23.660Z,81.04
2023-05-12T03:02:13.239Z,81.50
2023-05-12T03:05:02.613Z,80.90
2023-05-12T03:07:51.961Z,81.82
2023-05-12T03:10:44.105Z,81.74
2023-05-12T03:13:33.558Z,81.64
2023-05-12T03:16:23.015Z,81.46
2023-05-12T03:19:12.535Z,81.49
2023-05-12T03:22:02.089Z,81.29
2023-05-12T03:24:51.927Z,81.30
2023-05-12T03:27:42.784Z,81.40
2023-05-12T03:30:33.225Z,81.67
2023-05-12T03:33:22.628Z,81.21
2023-05-12T03:36:13.329Z,81.83
2023-05-12T03:39:03.212Z,81.42
2023-05-12T03:41:52.563Z,81.51
2023-05-12T03:44:43.898Z,81.98
2023-05-12T03:47:34.804Z,81.44
2023-05-12T03:50:24.255Z,81.36
2023-05-12T03:53:13.519Z,81.13
2023-05-12T03:56:06.641Z,80.91
2023-05-12T03:58:55.803Z,81.36
2023-05-12T04:01:46.636Z,80.77
2023-05-12T04:04:36.872Z,81.00
2023-05-12T04:07:26.506Z,80.95
2023-05-12T04:10:15.869Z,80.74
2023-05-12T04:13:05.578Z,81.10
2023-05-12T04:15:57.930Z,81.10
2023-05-12T04:18:49.522Z,81.16
2023-05-12T04:21:38.945Z,81.06
2023-05-12T04:24:28.435Z,81.09
2023-05-12T04:27:17.913Z,81.42
2023-05-12T04:30:09.632Z,81.02
2023-05-12T04:33:01.724Z,81.15
2023-05-12T04:35:57.753Z,81.31
2023-05-12T04:38:47.743Z,81.44
2023-05-12T04:41:37.499Z,81.53
2023-05-12T04:44:26.860Z,81.13
2023-05-12T04:47:16.595Z,81.14
2023-05-12T04:50:06.873Z,81.41
2023-05-12T04:52:57.676Z,81.39
2023-05-12T04:55:47.224Z,81.48
2023-05-12T04:58:38.490Z,81.43
2023-05-12T05:01:28.825Z,81.43
2023-05-12T05:04:18.908Z,81.77
2023-05-12T05:07:09.198Z,82.17
2023-05-12T05:10:00.404Z,82.53
2023-05-12T05:12:50.841Z,82.52
2023-05-12T05:15:53.151Z,82.41
2023-05-12T05:18:49.510Z,82.33
2023-05-12T05:21:38.956Z,82.45
2023-05-12T05:24:28.241Z,82.45
2023-05-12T05:27:21.490Z,82.76
2023-05-12T05:30:12.060Z,82.81
2023-05-12T05:33:03.037Z,82.66
2023-05-12T05:35:52.598Z,83.51
2023-05-12T05:38:42.077Z,83.30
2023-05-12T05:41:31.804Z,83.54
2023-05-12T05:44:22.900Z,83.21
2023-05-12T05:47:12.631Z,83.66
2023-05-12T05:50:02.115Z,83.78
2023-05-12T05:52:54.767Z,83.74
2023-05-12T05:55:45.340Z,83.78
2023-05-12T05:58:34.898Z,84.07
2023-05-12T06:01:27.713Z,84.46
2023-05-12T06:04:17.157Z,84.16
2023-05-12T06:07:06.914Z,84.68
2023-05-12T06:09:56.475Z,84.71
2023-05-12T06:12:45.985Z,84.30
2023-05-12T06:15:35.884Z,84.04
2023-05-12T06:18:26.551Z,83.91
2023-05-12T06:21:15.977Z,83.98
2023-05-12T06:24:08.914Z,83.06
2023-05-12T06:26:58.526Z,82.94
2023-05-12T06:29:47.867Z,82.82
2023-05-12T06:32:37.387Z,82.93
2023-05-12T06:35:29.605Z,83.69
2023-05-12T06:38:18.811Z,83.85
2023-05-12T06:41:09.343Z,83.39
2023-05-12T06:44:00.392Z,83.52
2023-05-12T06:46:50.225Z,83.00
2023-05-12T06:49:39.591Z,83.55
2023-05-12T06:52:30.282Z,83.38
2023-05-12T06:55:20.846Z,83.72
2023-05-12T06:58:10.452Z,83.28
2023-05-12T07:00:59.642Z,83.01
2023-05-12T07:03:48.940Z,83.65
2023-05-12T07:06:38.156Z,82.56
2023-05-12T07:09:28.868Z,82.55
2023-05-12T07:12:18.172Z,81.47
2023-05-12T07:15:09.762Z,82.41
2023-05-12T07:17:58.957Z,83.02
2023-05-12T07:20:49.178Z,82.70
2023-05-12T07:23:39.198Z,82.93
2023-05-12T07:26:30.449Z,82.96
2023-05-12T07:29:19.788Z,82.81
2023-05-12T07:32:09.259Z,81.91
2023-05-12T07:34:58.624Z,82.47
2023-05-12T07:37:47.910Z,82.43
2023-05-12T07:40:37.197Z,81.91
2023-05-12T07:43:27.936Z,81.76
2023-05-12T07:46:17.227Z,80.83
2023-05-12T07:49:07.449Z,82.02
2023-05-12T07:51:57.174Z,81.81
2023-05-12T07:54:46.607Z,81.61
2023-05-12T07:57:35.844Z,81.45
2023-05-12T08:00:26.800Z,81.52
2023-05-12T08:03:16.468Z,81.07
2023-05-12T08:06:07.420Z,80.75
2023-05-12T08:08:58.477Z,81.08
2023-05-12T08:11:50.012Z,81.24
2023-05-12T08:14:40.795Z,80.84
2023-05-12T08:17:31.473Z,80.88
2023-05-12T08:20:20.877Z,80.47
2023-05-12T08:23:10.338Z,80.30
2023-05-12T08:25:59.555Z,80.54
2023-05-12T08:28:48.771Z,79.46
2023-05-12T08:31:40.127Z,79.75
2023-05-12T08:34:33.972Z,79.55
2023-05-12T08:37:23.379Z,79.52
2023-05-12T08:40:19.959Z,79.18
2023-05-12T08:43:14.752Z,79.30
2023-05-12T08:46:04.127Z,78.63
2023-05-12T08:48:55.214Z,78.03
2023-05-12T08:51:56.823Z,78.10
2023-05-12T08:54:55.404Z,78.58
2023-05-12T08:57:48.515Z,77.62
2023-05-12T09:00:39.975Z,76.82
2023-05-12T09:03:29.665Z,77.45
2023-05-12T09:06:19.652Z,78.17
2023-05-12T09:09:10.598Z,77.73
2023-05-12T09:12:02.942Z,77.49
2023-05-12T09:15:02.072Z,76.45
2023-05-12T09:17:51.373Z,76.72
2023-05-12T09:20:40.767Z,77.39
2023-05-12T09:23:29.950Z,76.97
2023-05-12T09:26:20.964Z,76.39
2023-05-12T09:29:12.075Z,76.28
2023-05-12T09:32:05.905Z,76.88
2023-05-12T09:34:55.181Z,76.69
2023-05-12T09:37:44.512Z,76.11
2023-05-12T09:40:33.898Z,75.59
2023-05-12T09:43:24.562Z,75.25
2023-05-12T09:46:14.690Z,74.72
2023-05-12T09:49:04.498Z,75.24
2023-05-12T09:51:54.713Z,74.48
2023-05-12T09:54:43.990Z,75.10
2023-05-12T09:57:34.188Z,75.06
2023-05-12T10:00:38.682Z,75.00
2023-05-12T10:03:36.309Z,74.06
2023-05-12T10:06:29.421Z,73.57
2023-05-12T10:09:21.871Z,71.54
2023-05-12T10:12:11.884Z,72.23
2023-05-12T10:15:01.793Z,71.73
2023-05-12T10:17:54.096Z,72.02
2023-05-12T10:20:46.433Z,72.63
2023-05-12T10:23:38.316Z,72.18
2023-05-12T10:26:28.404Z,71.99
2023-05-12T10:29:18.323Z,71.94
2023-05-12T10:32:07.640Z,70.25
2023-05-12T10:35:09.223Z,69.19
2023-05-12T10:38:02.493Z,70.61
2023-05-12T10:40:55.922Z,70.73
2023-05-12T10:43:50.642Z,70.58
2023-05-12T10:46:40.049Z,70.22
2023-05-12T10:49:37.683Z,69.14
2023-05-12T10:52:28.576Z,69.52
2023-05-12T10:55:18.040Z,68.78
2023-05-12T10:58:12.970Z,68.54
2023-05-12T11:01:08.142Z,68.49
2023-05-12T11:04:10.617Z,67.52
2023-05-12T11:07:01.384Z,67.86
2023-05-12T11:09:57.526Z,68.01
2023-05-12T11:12:49.023Z,66.96
2023-05-12T11:15:38.787Z,65.92
2023-05-12T11:18:28.306Z,65.22
2023-05-12T11:21:17.525Z,65.55
2023-05-12T11:24:07.583Z,65.62
2023-05-12T11:26:58.431Z,65.85
2023-05-12T11:29:58.989Z,64.83
2023-05-12T11:32:48.676Z,65.44
2023-05-12T11:35:38.085Z,66.01
2023-05-12T11:38:28.437Z,65.97
2023-05-12T11:41:25.181Z,63.15
2023-05-12T11:44:18.799Z,63.82
2023-05-12T11:47:14.713Z,62.70
2023-05-12T11:50:06.430Z,60.72
2023-05-12T11:52:55.710Z,60.27
2023-05-12T11:55:52.410Z,58.03
2023-05-12T11:58:52.984Z,59.01
2023-05-12T12:01:48.044Z,58.22
2023-05-12T12:04:41.924Z,58.53
2023-05-12T12:07:32.683Z,56.81
2023-05-12T12:10:22.282Z,56.67
2023-05-12T12:13:12.197Z,56.40
2023-05-12T12:16:01.480Z,55.21
2023-05-12T12:18:52.447Z,54.38
2023-05-12T12:21:42.786Z,54.56
2023-05-12T12:24:32.043Z,54.75
2023-05-12T12:27:21.295Z,54.28
2023-05-12T12:30:12.133Z,54.27
2023-05-12T12:33:01.605Z,53.20
2023-05-12T12:35:52.630Z,51.02
2023-05-12T12:38:42.283Z,51.92
2023-05-12T12:41:32.851Z,50.90
2023-05-12T12:44:22.477Z,47.53
2023-05-12T12:47:11.939Z,48.55
2023-05-12T12:50:01.724Z,48.04
2023-05-12T12:52:52.734Z,46.14
2023-05-12T12:55:42.031Z,46.17
2023-05-12T12:58:31.380Z,45.28
2023-05-12T13:01:20.692Z,44.88
2023-05-12T13:04:09.986Z,43.44
2023-05-12T13:06:59.499Z,43.05
2023-05-12T13:09:50.354Z,42.99
2023-05-12T13:12:39.761Z,42.77
2023-05-12T13:15:29.567Z,42.89
2023-05-12T13:18:18.901Z,42.62
2023-05-12T13:21:08.348Z,42.68
2023-05-12T13:23:57.690Z,41.93
2023-05-12T13:26:48.330Z,41.44
2023-05-12T13:29:37.698Z,40.42
2023-05-12T13:32:27.076Z,40.56
2023-05-12T13:35:16.357Z,40.95
2023-05-12T13:38:05.669Z,40.55
2023-05-12T13:40:54.997Z,39.85
2023-05-12T13:43:45.781Z,39.77
2023-05-12T13:46:35.666Z,40.14
2023-05-12T13:49:25.009Z,40.20
2023-05-12T13:52:15.042Z,40.61
2023-05-12T13:55:04.512Z,41.09
2023-05-12T13:57:53.870Z,41.32
2023-05-12T14:00:45.097Z,42.05
2023-05-12T14:03:34.731Z,42.85
2023-05-12T14:06:24.078Z,43.13
2023-05-12T14:09:14.351Z,43.13
2023-05-12T14:12:04.462Z,42.67
2023-05-12T14:14:54.733Z,41.90
2023-05-12T14:17:48.944Z,42.42
2023-05-12T14:20:38.325Z,42.78
2023-05-12T14:23:27.820Z,42.66
2023-05-12T14:26:17.240Z,42.74
2023-05-12T14:29:08.694Z,41.57
2023-05-12T14:31:58.346Z,41.62
2023-05-12T14:34:49.047Z,41.10
2023-05-12T14:37:38.532Z,41.45
2023-05-12T14:40:28.093Z,41.29
2023-05-12T14:43:17.663Z,40.75
2023-05-12T14:46:08.731Z,40.66
2023-05-12T14:48:57.995Z,39.67
2023-05-12T14:51:49.627Z,40.23
2023-05-12T14:54:38.907Z,40.19
2023-05-12T14:57:28.326Z,39.70
2023-05-12T15:00:18.504Z,40.15
2023-05-12T15:03:07.998Z,40.40
2023-05-12T15:06:06.648Z,40.80
2023-05-12T15:08:58.242Z,41.31
2023-05-12T15:11:48.173Z,41.84
2023-05-12T15:14:37.793Z,41.98
2023-05-12T15:17:28.282Z,42.74
2023-05-12T15:20:17.747Z,43.06
2023-05-12T15:23:07.107Z,43.44
2023-05-12T15:25:59.391Z,43.74
2023-05-12T15:28:48.958Z,43.72
2023-05-12T15:31:38.719Z,43.98
2023-05-12T15:34:28.162Z,43.89
2023-05-12T15:37:17.590Z,43.97
2023-05-12T15:40:08.783Z,43.76
2023-05-12T15:42:59.439Z,44.04
2023-05-12T15:45:48.662Z,44.03
2023-05-12T15:48:37.944Z,44.29
2023-05-12T15:51:28.481Z,43.98
2023-05-12T15:54:18.535Z,43.75
2023-05-12T15:57:08.573Z,44.34
2023-05-12T16:00:02.554Z,44.43
2023-05-12T16:03:02.852Z,44.65
2023-05-12T16:05:52.480Z,44.53
2023-05-12T16:08:41.660Z,44.84
2023-05-12T16:11:31.024Z,45.25
2023-05-12T16:14:21.976Z,45.71
2023-05-12T16:17:12.720Z,46.20
2023-05-12T16:20:02.173Z,47.08
2023-05-12T16:22:53.443Z,47.72
2023-05-12T16:25:43.198Z,47.93
2023-05-12T16:28:34.581Z,48.27
2023-05-12T16:31:24.358Z,48.84
2023-05-12T16:34:15.004Z,49.00
2023-05-12T16:37:04.569Z,49.17
2023-05-12T16:39:53.793Z,49.18
2023-05-12T16:42:43.087Z,49.30
2023-05-12T16:45:33.061Z,49.72
2023-05-12T16:48:22.457Z,49.90
2023-05-12T16:51:13.104Z,50.00
2023-05-12T16:54:02.489Z,50.26
2023-05-12T16:56:51.893Z,50.06
2023-05-12T16:59:41.282Z,50.83
2023-05-12T17:02:30.910Z,50.78
2023-05-12T17:05:21.415Z,50.81
2023-05-12T17:08:12.570Z,51.08
2023-05-12T17:11:01.786Z,51.32
2023-05-12T17:13:51.218Z,51.37
2023-05-12T17:16:40.866Z,51.54
2023-05-12T17:19:30.411Z,51.19
2023-05-12T17:22:19.747Z,51.07
2023-05-12T17:25:11.984Z,50.78
2023-05-12T17:28:01.288Z,50.79
2023-05-12T17:30:50.548Z,50.85
2023-05-12T17:33:39.825Z,50.67
2023-05-12T17:36:29.078Z,50.64
2023-05-12T17:39:18.364Z,50.96
2023-05-12T17:42:09.506Z,51.17
2023-05-12T17:44:59.115Z,51.27
2023-05-12T17:47:50.481Z,50.65
2023-05-12T17:50:40.549Z,51.05
2023-05-12T17:53:29.941Z,51.30
2023-05-12T17:56:19.330Z,51.50
2023-05-12T17:59:10.113Z,51.46
2023-05-12T18:01:59.571Z,51.70
2023-05-12T18:04:49.332Z,51.63
2023-05-12T18:07:38.796Z,51.67
2023-05-12T18:10:28.917Z,51.63
2023-05-12T18:13:18.212Z,51.52
2023-05-12T18:16:25.037Z,51.26
2023-05-12T18:19:17.756Z,51.33
2023-05-12T18:22:07.403Z,51.27
2023-05-12T18:24:56.745Z,51.63
2023-05-12T18:27:46.497Z,51.71
2023-05-12T18:30:35.912Z,51.80
2023-05-12T18:33:26.887Z,52.10
2023-05-12T18:36:16.447Z,52.38
2023-05-12T18:39:06.874Z,52.64
2023-05-12T18:41:56.495Z,52.65
2023-05-12T18:44:45.807Z,52.72
2023-05-12T18:47:35.323Z,52.99
2023-05-12T18:50:26.163Z,52.98
2023-05-12T18:53:15.674Z,53.24
2023-05-12T18:56:05.516Z,53.45
2023-05-12T18:58:54.811Z,53.60
2023-05-12T19:01:44.479Z,54.05
2023-05-12T19:04:34.054Z,53.94
2023-05-12T19:07:25.068Z,54.62
2023-05-12T19:10:14.562Z,55.18
2023-05-12T19:13:04.044Z,55.65
2023-05-12T19:15:53.332Z,55.97
2023-05-12T19:18:42.685Z,56.53
2023-05-12T19:21:33.679Z,57.12
2023-05-12T19:24:27.303Z,57.83
2023-05-12T19:27:16.703Z,57.83
2023-05-12T19:30:07.361Z,58.11
2023-05-12T19:32:56.927Z,58.70
2023-05-12T19:35:46.408Z,58.84
2023-05-12T19:38:35.921Z,59.25
2023-05-12T19:41:27.653Z,59.28
2023-05-12T19:44:17.950Z,59.84
2023-05-12T19:47:08.774Z,60.09
2023-05-12T19:49:58.121Z,60.73
2023-05-12T19:52:47.576Z,60.81
2023-05-12T19:55:37.177Z,60.93
2023-05-12T19:58:27.885Z,61.12
2023-05-12T20:01:17.212Z,61.29
2023-05-12T20:04:06.685Z,61.37
2023-05-12T20:06:56.043Z,61.68
2023-05-12T20:09:45.986Z,61.69
2023-05-12T20:12:35.194Z,61.77
2023-05-12T20:15:26.006Z,61.75
2023-05-12T20:18:15.817Z,61.93
2023-05-12T20:21:05.245Z,62.12
2023-05-12T20:23:54.580Z,62.19
2023-05-12T20:26:44.017Z,62.37
2023-05-12T20:29:33.399Z,62.69
2023-05-12T20:32:24.186Z,63.03
2023-05-12T20:35:13.647Z,63.03
2023-05-12T20:38:03.471Z,63.04
2023-05-12T20:40:53.199Z,63.10
2023-05-12T20:43:42.542Z,63.49
2023-05-12T20:46:32.821Z,63.48
2023-05-12T20:49:24.790Z,63.44
2023-05-12T20:52:14.602Z,63.23
2023-05-12T20:55:11.153Z,63.78
2023-05-12T20:58:00.497Z,63.53
2023-05-12T21:00:49.731Z,63.72
2023-05-12T21:03:41.005Z,63.90
2023-05-12T21:06:32.993Z,63.85
2023-05-12T21:09:22.271Z,63.71
2023-05-12T21:12:12.034Z,63.83
2023-05-12T21:15:01.945Z,64.04
2023-05-12T21:17:51.552Z,63.91
2023-05-12T21:20:40.948Z,64.13
2023-05-12T21:23:31.603Z,64.22
2023-05-12T21:26:21.444Z,64.29
2023-05-12T21:29:11.000Z,64.25
2023-05-12T21:32:00.536Z,64.31
2023-05-12T21:34:50.313Z,64.43
2023-05-12T21:37:39.670Z,64.72
2023-05-12T21:40:30.728Z,64.79
2023-05-12T21:43:20.142Z,65.15
2023-05-12T21:46:09.582Z,64.87
2023-05-12T21:48:58.892Z,65.04
2023-05-12T21:51:48.160Z,64.75
2023-05-12T21:54:38.513Z,65.11
2023-05-12T21:57:29.319Z,65.11
2023-05-12T22:00:20.293Z,65.14
2023-05-12T22:03:12.137Z,65.36
2023-05-12T22:06:01.904Z,65.32
2023-05-12T22:08:53.450Z,65.44
2023-05-12T22:11:46.980Z,65.67
2023-05-12T22:14:39.107Z,65.80
2023-05-12T22:17:28.475Z,65.54
2023-05-12T22:20:19.256Z,65.88
2023-05-12T22:23:08.912Z,66.11
2023-05-12T22:25:58.192Z,65.83
2023-05-12T22:28:47.432Z,65.98
2023-05-12T22:31:38.103Z,66.17
2023-05-12T22:34:27.397Z,66.75
2023-05-12T22:37:17.088Z,67.20
2023-05-12T22:40:10.105Z,67.31
2023-05-12T22:42:59.271Z,67.51
2023-05-12T22:45:52.549Z,67.10
2023-05-12T22:48:43.560Z,66.92
2023-05-12T22:51:33.274Z,67.06
2023-05-12T22:54:22.638Z,66.93
2023-05-12T22:57:12.377Z,67.31
2023-05-12T23:00:03.764Z,67.26
2023-05-12T23:02:53.329Z,67.44
2023-05-12T23:05:43.974Z,67.66
2023-05-12T23:08:33.200Z,67.58
2023-05-12T23:11:22.655Z,68.05
2023-05-12T23:14:12.760Z,67.46
2023-05-12T23:17:02.297Z,68.03
2023-05-12T23:19:52.286Z,68.15
2023-05-12T23:22:43.055Z,68.50
2023-05-12T23:25:32.312Z,68.33
2023-05-12T23:28:21.708Z,68.33
2023-05-12T23:31:11.067Z,68.70
2023-05-12T23:34:01.109Z,68.91
2023-05-12T23:36:50.417Z,68.77
2023-05-12T23:39:41.525Z,69.00
2023-05-12T23:42:30.744Z,68.88
2023-05-12T23:45:19.958Z,68.96
2023-05-12T23:48:09.309Z,68.58
2023-05-12T23:50:58.587Z,68.98
2023-05-12T23:53:48.176Z,68.91
2023-05-12T23:56:38.838Z,69.16
2023-05-12T23:59:28.209Z,69.02
